Audubon, NJ

8:28 AM EST on November 12, 2019 (GMT -0500)
Haddon Heights | | Change Station

Elev 75 ft 39.88 °N, 75.08 °W | Updated 7 seconds ago

Rain
Rain
45.7 °F
Feels Like 43 °F
N
6
Wind Variable Wind from NNW
Gusts 8.1 mph

Today
High -- | Low -- °F
--% Chance of Precip.
Yesterday
High -- | Low -- °F
Precip. -- in
Pressure 29.84 in
Visibility 10.0 miles
Clouds Scattered Clouds 1300 ft
Overcast 2000 ft
Windchill 43 °F
Dew Point 44 °F
Humidity 93%
Rainfall 0.11 in
Snow Depth Not available.
6:41 AM 4:46 PM
Full, 100% visible
SPECI KPHL 121321Z 32017KT 10SM -RA SCT013 OVC020 07/04 A2984 RMK AO2 PK WND 32032/1301 WSHFT 1255 PRESRR P0002 T00670039
Pressure 29.84 in
Visibility 10.0 miles
Clouds Scattered Clouds 1300 ft
Overcast 2000 ft
Windchill 43 °F
Dew Point 44 °F
Humidity 93%
Rainfall 0.11 in
Snow Depth Not available.
6:41 AM 4:46 PM
Full, 100% visible
SPECI KPHL 121321Z 32017KT 10SM -RA SCT013 OVC020 07/04 A2984 RMK AO2 PK WND 32032/1301 WSHFT 1255 PRESRR P0002 T00670039

Get Severe Weather Alerts

Thanks for signing up!

Be on the lookout for a verification email in your inbox.

You'll start receiving the daily forecast at 6 AM.

×

10-Day Weather Forecast

Almanac

Astronomy

Nov. 12, 2019 Rise Set
Actual Time
Civil Twilight
Nautical Twilight
Astronomical Twilight
Moon
Length of Visible Light
Length of Day
Tomorrow will be .
, % of the Moon is Illuminated

Today's Extremes

State Highs State Lows

Community

WunderPhotos

Category 6

Welcome to Category 6. This is the collective home for Weather Underground's featured writeups by Dr. Jeff Masters (right), Bob Henson (left), Chris Burt, and other regular contributors.

Nearby

Air Quality

  Air Quality AQ Index Pollutant
Not available.

Snow Depth

Station Depth Elevation

Earthquake Activity

City Distance Mag. Time & Date
Minimum magnitude displayed is 2.5.

Coastal Water Temperatures

Place Temperature

Stations

Nearby Weather Stations

Station Location Temp. Windchill Dew Point Humidity Wind Precip. Elev Updated Type
                   

Watches & Warnings

There are currently no watches in effect.